sensor_id;sensor_type;location;lat;lon;timestamp;P1;durP1;ratioP1;P2;durP2;ratioP2
43819;SDS011;59678;52.476;6.046;2022-09-27T00:00:39;107.88;;;102.38;;
43819;SDS011;59678;52.476;6.046;2022-09-27T00:03:08;99.72;;;94.63;;
43819;SDS011;59678;52.476;6.046;2022-09-27T00:05:34;101.72;;;96.43;;
43819;SDS011;59678;52.476;6.046;2022-09-27T00:08:00;103.85;;;98.55;;
43819;SDS011;59678;52.476;6.046;2022-09-27T00:10:25;106.70;;;101.28;;
43819;SDS011;59678;52.476;6.046;2022-09-27T00:12:51;102.95;;;97.75;;
43819;SDS011;59678;52.476;6.046;2022-09-27T00:15:17;110.05;;;104.53;;
43819;SDS011;59678;52.476;6.046;2022-09-27T00:17:42;102.80;;;97.60;;
43819;SDS011;59678;52.476;6.046;2022-09-27T00:20:08;101.50;;;96.30;;
43819;SDS011;59678;52.476;6.046;2022-09-27T00:22:34;103.78;;;98.57;;
43819;SDS011;59678;52.476;6.046;2022-09-27T00:24:59;106.07;;;100.78;;
43819;SDS011;59678;52.476;6.046;2022-09-27T00:27:25;102.38;;;97.20;;
43819;SDS011;59678;52.476;6.046;2022-09-27T00:29:51;98.50;;;93.50;;
43819;SDS011;59678;52.476;6.046;2022-09-27T00:32:17;99.90;;;94.80;;
43819;SDS011;59678;52.476;6.046;2022-09-27T00:34:42;101.70;;;96.60;;
43819;SDS011;59678;52.476;6.046;2022-09-27T00:37:08;98.63;;;93.65;;
43819;SDS011;59678;52.476;6.046;2022-09-27T00:39:34;99.63;;;94.63;;
43819;SDS011;59678;52.476;6.046;2022-09-27T00:41:59;97.97;;;93.07;;
43819;SDS011;59678;52.476;6.046;2022-09-27T00:49:24;95.05;;;90.25;;
43819;SDS011;59678;52.476;6.046;2022-09-27T00:51:53;96.88;;;91.97;;
43819;SDS011;59678;52.476;6.046;2022-09-27T00:54:20;93.80;;;89.10;;
43819;SDS011;59678;52.476;6.046;2022-09-27T00:56:46;83.50;;;79.38;;
43819;SDS011;59678;52.476;6.046;2022-09-27T00:59:18;80.70;;;76.70;;
43819;SDS011;59678;52.476;6.046;2022-09-27T01:01:44;77.90;;;74.03;;
43819;SDS011;59678;52.476;6.046;2022-09-27T01:04:14;78.68;;;74.82;;
43819;SDS011;59678;52.476;6.046;2022-09-27T01:06:42;81.90;;;77.90;;
43819;SDS011;59678;52.476;6.046;2022-09-27T01:09:08;79.53;;;75.63;;
43819;SDS011;59678;52.476;6.046;2022-09-27T01:14:18;78.53;;;74.65;;
43819;SDS011;59678;52.476;6.046;2022-09-27T01:16:58;77.22;;;73.43;;
43819;SDS011;59678;52.476;6.046;2022-09-27T01:22:06;75.53;;;71.82;;
43819;SDS011;59678;52.476;6.046;2022-09-27T01:30:20;79.40;;;75.50;;
43819;SDS011;59678;52.476;6.046;2022-09-27T01:35:43;77.57;;;73.78;;
43819;SDS011;59678;52.476;6.046;2022-09-27T01:38:30;75.60;;;71.90;;
43819;SDS011;59678;52.476;6.046;2022-09-27T01:41:07;77.60;;;73.80;;
43819;SDS011;59678;52.476;6.046;2022-09-27T01:43:48;76.82;;;73.03;;
43819;SDS011;59678;52.476;6.046;2022-09-27T01:46:21;77.20;;;73.40;;
43819;SDS011;59678;52.476;6.046;2022-09-27T01:49:17;74.68;;;70.97;;
43819;SDS011;59678;52.476;6.046;2022-09-27T01:51:44;66.57;;;63.28;;
43819;SDS011;59678;52.476;6.046;2022-09-27T01:54:14;71.43;;;67.93;;
43819;SDS011;59678;52.476;6.046;2022-09-27T01:56:47;73.07;;;69.47;;
43819;SDS011;59678;52.476;6.046;2022-09-27T01:59:22;74.90;;;71.20;;
43819;SDS011;59678;52.476;6.046;2022-09-27T02:02:06;76.38;;;72.57;;
43819;SDS011;59678;52.476;6.046;2022-09-27T02:04:54;79.55;;;75.65;;
43819;SDS011;59678;52.476;6.046;2022-09-27T02:07:26;69.75;;;66.35;;
43819;SDS011;59678;52.476;6.046;2022-09-27T02:09:59;69.90;;;66.50;;
43819;SDS011;59678;52.476;6.046;2022-09-27T02:12:39;68.80;;;65.40;;
43819;SDS011;59678;52.476;6.046;2022-09-27T02:15:11;70.82;;;67.32;;
43819;SDS011;59678;52.476;6.046;2022-09-27T02:22:55;68.15;;;64.85;;
43819;SDS011;59678;52.476;6.046;2022-09-27T02:25:30;66.07;;;62.80;;
43819;SDS011;59678;52.476;6.046;2022-09-27T02:28:07;67.07;;;63.78;;
43819;SDS011;59678;52.476;6.046;2022-09-27T02:30:35;67.20;;;63.90;;
43819;SDS011;59678;52.476;6.046;2022-09-27T02:33:14;63.95;;;60.78;;
43819;SDS011;59678;52.476;6.046;2022-09-27T02:35:39;62.17;;;59.08;;
43819;SDS011;59678;52.476;6.046;2022-09-27T02:38:05;62.10;;;59.00;;
43819;SDS011;59678;52.476;6.046;2022-09-27T02:40:33;63.22;;;60.13;;
43819;SDS011;59678;52.476;6.046;2022-09-27T02:42:59;64.47;;;61.28;;
43819;SDS011;59678;52.476;6.046;2022-09-27T02:45:31;64.13;;;60.92;;
43819;SDS011;59678;52.476;6.046;2022-09-27T02:48:20;63.25;;;60.05;;
43819;SDS011;59678;52.476;6.046;2022-09-27T02:51:02;63.65;;;60.53;;
43819;SDS011;59678;52.476;6.046;2022-09-27T03:00:05;62.85;;;59.75;;
43819;SDS011;59678;52.476;6.046;2022-09-27T03:03:05;64.05;;;60.85;;
43819;SDS011;59678;52.476;6.046;2022-09-27T03:05:53;65.78;;;62.50;;
43819;SDS011;59678;52.476;6.046;2022-09-27T03:08:21;64.22;;;61.03;;
43819;SDS011;59678;52.476;6.046;2022-09-27T03:10:47;66.53;;;63.22;;
43819;SDS011;59678;52.476;6.046;2022-09-27T03:13:12;66.35;;;63.03;;
43819;SDS011;59678;52.476;6.046;2022-09-27T03:15:39;69.35;;;65.85;;
43819;SDS011;59678;52.476;6.046;2022-09-27T03:18:04;66.38;;;63.08;;
43819;SDS011;59678;52.476;6.046;2022-09-27T03:20:48;68.40;;;65.00;;
43819;SDS011;59678;52.476;6.046;2022-09-27T03:23:18;71.00;;;67.45;;
43819;SDS011;59678;52.476;6.046;2022-09-27T03:25:43;69.95;;;66.45;;
43819;SDS011;59678;52.476;6.046;2022-09-27T03:28:11;69.32;;;65.88;;
43819;SDS011;59678;52.476;6.046;2022-09-27T03:30:37;73.43;;;69.80;;
43819;SDS011;59678;52.476;6.046;2022-09-27T03:33:03;77.65;;;73.80;;
43819;SDS011;59678;52.476;6.046;2022-09-27T03:35:47;75.00;;;71.30;;
43819;SDS011;59678;52.476;6.046;2022-09-27T03:38:14;74.68;;;70.97;;
43819;SDS011;59678;52.476;6.046;2022-09-27T03:40:39;78.57;;;74.68;;
43819;SDS011;59678;52.476;6.046;2022-09-27T03:43:06;71.50;;;68.00;;
43819;SDS011;59678;52.476;6.046;2022-09-27T03:45:32;76.50;;;72.70;;
43819;SDS011;59678;52.476;6.046;2022-09-27T03:47:59;73.57;;;69.93;;
43819;SDS011;59678;52.476;6.046;2022-09-27T03:50:25;76.88;;;73.07;;
43819;SDS011;59678;52.476;6.046;2022-09-27T03:52:51;75.57;;;71.85;;
43819;SDS011;59678;52.476;6.046;2022-09-27T03:55:17;70.35;;;66.85;;
43819;SDS011;59678;52.476;6.046;2022-09-27T03:57:44;74.43;;;70.82;;
43819;SDS011;59678;52.476;6.046;2022-09-27T04:00:10;72.00;;;68.45;;
43819;SDS011;59678;52.476;6.046;2022-09-27T04:02:40;77.40;;;73.63;;
43819;SDS011;59678;52.476;6.046;2022-09-27T04:05:21;73.20;;;69.60;;
43819;SDS011;59678;52.476;6.046;2022-09-27T04:07:48;73.25;;;69.65;;
43819;SDS011;59678;52.476;6.046;2022-09-27T04:10:15;67.88;;;64.47;;
43819;SDS011;59678;52.476;6.046;2022-09-27T04:12:42;73.35;;;69.75;;
43819;SDS011;59678;52.476;6.046;2022-09-27T04:15:08;76.00;;;72.30;;
43819;SDS011;59678;52.476;6.046;2022-09-27T04:17:45;70.95;;;67.45;;
43819;SDS011;59678;52.476;6.046;2022-09-27T04:20:30;67.53;;;64.20;;
43819;SDS011;59678;52.476;6.046;2022-09-27T04:22:57;67.45;;;64.15;;
43819;SDS011;59678;52.476;6.046;2022-09-27T04:25:22;70.82;;;67.38;;
43819;SDS011;59678;52.476;6.046;2022-09-27T04:27:49;65.30;;;62.10;;
43819;SDS011;59678;52.476;6.046;2022-09-27T04:30:19;61.85;;;58.85;;
43819;SDS011;59678;52.476;6.046;2022-09-27T04:33:03;63.78;;;60.65;;
43819;SDS011;59678;52.476;6.046;2022-09-27T04:35:48;56.92;;;54.15;;
43819;SDS011;59678;52.476;6.046;2022-09-27T04:38:34;65.05;;;61.85;;
43819;SDS011;59678;52.476;6.046;2022-09-27T04:41:00;62.10;;;59.03;;
43819;SDS011;59678;52.476;6.046;2022-09-27T04:43:27;14.23;;;13.52;;
43819;SDS011;59678;52.476;6.046;2022-09-27T04:45:53;4.95;;;4.65;;
43819;SDS011;59678;52.476;6.046;2022-09-27T04:48:19;2.88;;;2.78;;
43819;SDS011;59678;52.476;6.046;2022-09-27T04:50:44;2.58;;;2.47;;
43819;SDS011;59678;52.476;6.046;2022-09-27T04:53:14;1.98;;;1.88;;
43819;SDS011;59678;52.476;6.046;2022-09-27T04:55:43;1.77;;;1.67;;
43819;SDS011;59678;52.476;6.046;2022-09-27T04:58:09;1.40;;;1.33;;
43819;SDS011;59678;52.476;6.046;2022-09-27T05:00:35;0.93;;;0.93;;
43819;SDS011;59678;52.476;6.046;2022-09-27T05:03:19;0.82;;;0.82;;
43819;SDS011;59678;52.476;6.046;2022-09-27T05:08:20;0.55;;;0.55;;
43819;SDS011;59678;52.476;6.046;2022-09-27T05:11:05;0.88;;;0.88;;
43819;SDS011;59678;52.476;6.046;2022-09-27T05:13:31;0.40;;;0.40;;
43819;SDS011;59678;52.476;6.046;2022-09-27T05:16:02;0.47;;;0.47;;
43819;SDS011;59678;52.476;6.046;2022-09-27T05:18:48;0.43;;;0.43;;
43819;SDS011;59678;52.476;6.046;2022-09-27T05:21:32;0.40;;;0.40;;
43819;SDS011;59678;52.476;6.046;2022-09-27T05:23:57;0.43;;;0.43;;
43819;SDS011;59678;52.476;6.046;2022-09-27T05:26:24;0.60;;;0.60;;
43819;SDS011;59678;52.476;6.046;2022-09-27T05:28:49;0.30;;;0.30;;
43819;SDS011;59678;52.476;6.046;2022-09-27T05:31:15;0.35;;;0.35;;
43819;SDS011;59678;52.476;6.046;2022-09-27T05:33:41;0.30;;;0.30;;
43819;SDS011;59678;52.476;6.046;2022-09-27T05:36:26;0.30;;;0.30;;
43819;SDS011;59678;52.476;6.046;2022-09-27T05:38:52;0.30;;;0.30;;
43819;SDS011;59678;52.476;6.046;2022-09-27T05:41:18;0.20;;;0.20;;
43819;SDS011;59678;52.476;6.046;2022-09-27T05:43:44;0.30;;;0.30;;
43819;SDS011;59678;52.476;6.046;2022-09-27T05:46:12;0.20;;;0.20;;
43819;SDS011;59678;52.476;6.046;2022-09-27T05:48:40;0.25;;;0.25;;
43819;SDS011;59678;52.476;6.046;2022-09-27T05:51:06;0.20;;;0.20;;
43819;SDS011;59678;52.476;6.046;2022-09-27T05:53:34;0.20;;;0.20;;
43819;SDS011;59678;52.476;6.046;2022-09-27T05:56:03;0.30;;;0.30;;
43819;SDS011;59678;52.476;6.046;2022-09-27T05:58:40;0.30;;;0.30;;
43819;SDS011;59678;52.476;6.046;2022-09-27T06:01:13;1.42;;;1.33;;
43819;SDS011;59678;52.476;6.046;2022-09-27T06:04:01;0.30;;;0.30;;
43819;SDS011;59678;52.476;6.046;2022-09-27T06:06:46;0.28;;;0.28;;
43819;SDS011;59678;52.476;6.046;2022-09-27T06:09:12;0.30;;;0.30;;
43819;SDS011;59678;52.476;6.046;2022-09-27T06:11:38;0.22;;;0.22;;
43819;SDS011;59678;52.476;6.046;2022-09-27T06:14:04;0.20;;;0.20;;
43819;SDS011;59678;52.476;6.046;2022-09-27T06:16:35;0.15;;;0.15;;
43819;SDS011;59678;52.476;6.046;2022-09-27T06:19:01;0.73;;;0.73;;
43819;SDS011;59678;52.476;6.046;2022-09-27T06:21:28;0.40;;;0.40;;
43819;SDS011;59678;52.476;6.046;2022-09-27T06:23:56;1.92;;;1.75;;
43819;SDS011;59678;52.476;6.046;2022-09-27T06:26:28;0.10;;;0.10;;
43819;SDS011;59678;52.476;6.046;2022-09-27T06:29:20;0.20;;;0.20;;
43819;SDS011;59678;52.476;6.046;2022-09-27T06:31:51;0.15;;;0.15;;
43819;SDS011;59678;52.476;6.046;2022-09-27T06:34:27;0.20;;;0.20;;
43819;SDS011;59678;52.476;6.046;2022-09-27T06:36:52;0.20;;;0.20;;
43819;SDS011;59678;52.476;6.046;2022-09-27T06:39:18;0.20;;;0.20;;
43819;SDS011;59678;52.476;6.046;2022-09-27T06:41:59;0.20;;;0.20;;
43819;SDS011;59678;52.476;6.046;2022-09-27T06:44:54;0.20;;;0.20;;
43819;SDS011;59678;52.476;6.046;2022-09-27T06:47:57;0.20;;;0.20;;
43819;SDS011;59678;52.476;6.046;2022-09-27T06:50:39;0.30;;;0.30;;
43819;SDS011;59678;52.476;6.046;2022-09-27T06:53:05;0.30;;;0.30;;
43819;SDS011;59678;52.476;6.046;2022-09-27T06:55:31;0.30;;;0.30;;
43819;SDS011;59678;52.476;6.046;2022-09-27T06:57:58;0.20;;;0.20;;
43819;SDS011;59678;52.476;6.046;2022-09-27T07:01:14;0.20;;;0.20;;
43819;SDS011;59678;52.476;6.046;2022-09-27T07:04:00;0.20;;;0.20;;
43819;SDS011;59678;52.476;6.046;2022-09-27T07:06:44;0.20;;;0.20;;
43819;SDS011;59678;52.476;6.046;2022-09-27T07:09:29;0.20;;;0.20;;
43819;SDS011;59678;52.476;6.046;2022-09-27T07:11:54;0.20;;;0.20;;
43819;SDS011;59678;52.476;6.046;2022-09-27T07:14:20;0.30;;;0.30;;
43819;SDS011;59678;52.476;6.046;2022-09-27T07:16:46;0.35;;;0.35;;
43819;SDS011;59678;52.476;6.046;2022-09-27T07:19:12;0.70;;;0.70;;
43819;SDS011;59678;52.476;6.046;2022-09-27T07:21:39;0.17;;;0.17;;
43819;SDS011;59678;52.476;6.046;2022-09-27T07:24:05;0.15;;;0.15;;
43819;SDS011;59678;52.476;6.046;2022-09-27T07:26:31;0.10;;;0.10;;
43819;SDS011;59678;52.476;6.046;2022-09-27T07:28:57;0.15;;;0.15;;
43819;SDS011;59678;52.476;6.046;2022-09-27T07:31:25;0.20;;;0.20;;
43819;SDS011;59678;52.476;6.046;2022-09-27T07:33:52;0.10;;;0.10;;
43819;SDS011;59678;52.476;6.046;2022-09-27T07:36:17;0.20;;;0.20;;
43819;SDS011;59678;52.476;6.046;2022-09-27T07:38:45;0.20;;;0.20;;
43819;SDS011;59678;52.476;6.046;2022-09-27T07:41:12;0.10;;;0.10;;
43819;SDS011;59678;52.476;6.046;2022-09-27T07:43:42;0.10;;;0.10;;
43819;SDS011;59678;52.476;6.046;2022-09-27T07:46:11;0.10;;;0.10;;
43819;SDS011;59678;52.476;6.046;2022-09-27T07:48:53;0.10;;;0.10;;
43819;SDS011;59678;52.476;6.046;2022-09-27T07:51:38;0.13;;;0.13;;
43819;SDS011;59678;52.476;6.046;2022-09-27T07:54:09;0.10;;;0.10;;
43819;SDS011;59678;52.476;6.046;2022-09-27T07:56:45;0.10;;;0.10;;
43819;SDS011;59678;52.476;6.046;2022-09-27T07:59:12;0.75;;;0.75;;
43819;SDS011;59678;52.476;6.046;2022-09-27T08:01:38;0.20;;;0.20;;
43819;SDS011;59678;52.476;6.046;2022-09-27T08:04:03;0.20;;;0.20;;
43819;SDS011;59678;52.476;6.046;2022-09-27T08:06:30;0.25;;;0.25;;
43819;SDS011;59678;52.476;6.046;2022-09-27T08:08:56;0.30;;;0.30;;
43819;SDS011;59678;52.476;6.046;2022-09-27T08:11:27;0.20;;;0.20;;
43819;SDS011;59678;52.476;6.046;2022-09-27T08:13:52;0.20;;;0.20;;
43819;SDS011;59678;52.476;6.046;2022-09-27T08:16:22;0.20;;;0.20;;
43819;SDS011;59678;52.476;6.046;2022-09-27T08:19:17;0.20;;;0.20;;
43819;SDS011;59678;52.476;6.046;2022-09-27T08:22:01;0.10;;;0.10;;
43819;SDS011;59678;52.476;6.046;2022-09-27T08:24:40;0.20;;;0.20;;
43819;SDS011;59678;52.476;6.046;2022-09-27T08:27:32;0.20;;;0.20;;
43819;SDS011;59678;52.476;6.046;2022-09-27T08:30:01;0.20;;;0.20;;
43819;SDS011;59678;52.476;6.046;2022-09-27T08:32:28;0.20;;;0.20;;
43819;SDS011;59678;52.476;6.046;2022-09-27T08:34:55;0.20;;;0.20;;
43819;SDS011;59678;52.476;6.046;2022-09-27T08:37:21;0.20;;;0.20;;
43819;SDS011;59678;52.476;6.046;2022-09-27T08:39:48;0.30;;;0.30;;
43819;SDS011;59678;52.476;6.046;2022-09-27T08:50:00;0.20;;;0.20;;
43819;SDS011;59678;52.476;6.046;2022-09-27T08:52:31;0.10;;;0.10;;
43819;SDS011;59678;52.476;6.046;2022-09-27T08:55:02;0.20;;;0.20;;
43819;SDS011;59678;52.476;6.046;2022-09-27T08:57:28;0.20;;;0.20;;
43819;SDS011;59678;52.476;6.046;2022-09-27T09:00:06;0.20;;;0.20;;
43819;SDS011;59678;52.476;6.046;2022-09-27T09:02:33;0.20;;;0.20;;
43819;SDS011;59678;52.476;6.046;2022-09-27T09:05:01;0.10;;;0.10;;
43819;SDS011;59678;52.476;6.046;2022-09-27T09:09:56;0.20;;;0.20;;
43819;SDS011;59678;52.476;6.046;2022-09-27T09:18:37;0.20;;;0.20;;
43819;SDS011;59678;52.476;6.046;2022-09-27T09:21:40;0.10;;;0.10;;
43819;SDS011;59678;52.476;6.046;2022-09-27T09:24:18;0.10;;;0.10;;
43819;SDS011;59678;52.476;6.046;2022-09-27T09:26:57;0.20;;;0.20;;
43819;SDS011;59678;52.476;6.046;2022-09-27T09:34:38;0.20;;;0.20;;
43819;SDS011;59678;52.476;6.046;2022-09-27T09:39:42;0.10;;;0.10;;
43819;SDS011;59678;52.476;6.046;2022-09-27T09:42:19;0.20;;;0.20;;
43819;SDS011;59678;52.476;6.046;2022-09-27T09:47:46;2.53;;;0.50;;
43819;SDS011;59678;52.476;6.046;2022-09-27T09:50:17;4.53;;;0.47;;
43819;SDS011;59678;52.476;6.046;2022-09-27T09:52:48;2.70;;;0.50;;
43819;SDS011;59678;52.476;6.046;2022-09-27T09:55:16;2.05;;;0.50;;
43819;SDS011;59678;52.476;6.046;2022-09-27T09:57:52;1.98;;;0.40;;
43819;SDS011;59678;52.476;6.046;2022-09-27T10:00:22;0.95;;;0.40;;
43819;SDS011;59678;52.476;6.046;2022-09-27T10:02:52;2.17;;;0.47;;
43819;SDS011;59678;52.476;6.046;2022-09-27T10:05:23;2.45;;;0.63;;
43819;SDS011;59678;52.476;6.046;2022-09-27T10:07:57;1.05;;;0.40;;
43819;SDS011;59678;52.476;6.046;2022-09-27T10:10:24;0.50;;;0.25;;
43819;SDS011;59678;52.476;6.046;2022-09-27T10:13:07;0.35;;;0.30;;
43819;SDS011;59678;52.476;6.046;2022-09-27T10:15:36;2.08;;;0.40;;
43819;SDS011;59678;52.476;6.046;2022-09-27T10:18:02;2.25;;;0.85;;
43819;SDS011;59678;52.476;6.046;2022-09-27T10:20:34;3.42;;;0.63;;
43819;SDS011;59678;52.476;6.046;2022-09-27T10:23:03;3.00;;;0.50;;
43819;SDS011;59678;52.476;6.046;2022-09-27T10:28:37;3.08;;;0.60;;
43819;SDS011;59678;52.476;6.046;2022-09-27T10:31:13;3.13;;;0.93;;
43819;SDS011;59678;52.476;6.046;2022-09-27T10:33:54;2.03;;;0.40;;
43819;SDS011;59678;52.476;6.046;2022-09-27T10:36:29;2.90;;;0.52;;
43819;SDS011;59678;52.476;6.046;2022-09-27T10:38:59;2.30;;;0.50;;
43819;SDS011;59678;52.476;6.046;2022-09-27T10:41:37;19.77;;;10.30;;
43819;SDS011;59678;52.476;6.046;2022-09-27T10:46:39;4.25;;;0.98;;
43819;SDS011;59678;52.476;6.046;2022-09-27T10:51:55;1.98;;;0.60;;
43819;SDS011;59678;52.476;6.046;2022-09-27T10:54:29;2.13;;;0.60;;
43819;SDS011;59678;52.476;6.046;2022-09-27T10:56:59;3.55;;;0.80;;
43819;SDS011;59678;52.476;6.046;2022-09-27T10:59:26;2.53;;;0.40;;
43819;SDS011;59678;52.476;6.046;2022-09-27T11:01:55;3.70;;;0.90;;
43819;SDS011;59678;52.476;6.046;2022-09-27T11:04:35;2.75;;;0.68;;
43819;SDS011;59678;52.476;6.046;2022-09-27T11:07:15;0.85;;;0.30;;
43819;SDS011;59678;52.476;6.046;2022-09-27T11:09:53;6.53;;;0.85;;
43819;SDS011;59678;52.476;6.046;2022-09-27T11:12:21;0.98;;;0.50;;
43819;SDS011;59678;52.476;6.046;2022-09-27T11:14:51;1.60;;;0.32;;
43819;SDS011;59678;52.476;6.046;2022-09-27T11:20:17;2.53;;;0.98;;
43819;SDS011;59678;52.476;6.046;2022-09-27T11:27:57;2.33;;;0.70;;
43819;SDS011;59678;52.476;6.046;2022-09-27T11:30:33;2.38;;;0.65;;
43819;SDS011;59678;52.476;6.046;2022-09-27T11:38:29;1.40;;;0.35;;
43819;SDS011;59678;52.476;6.046;2022-09-27T11:46:04;3.53;;;0.50;;
43819;SDS011;59678;52.476;6.046;2022-09-27T11:51:26;5.25;;;0.70;;
43819;SDS011;59678;52.476;6.046;2022-09-27T12:07:39;2.70;;;1.08;;
43819;SDS011;59678;52.476;6.046;2022-09-27T12:10:12;1.55;;;0.55;;
43819;SDS011;59678;52.476;6.046;2022-09-27T12:12:40;1.65;;;0.28;;
43819;SDS011;59678;52.476;6.046;2022-09-27T12:15:20;1.35;;;0.40;;
43819;SDS011;59678;52.476;6.046;2022-09-27T12:17:48;1.70;;;0.40;;
43819;SDS011;59678;52.476;6.046;2022-09-27T12:20:22;1.60;;;0.30;;
43819;SDS011;59678;52.476;6.046;2022-09-27T12:25:19;0.77;;;0.40;;
43819;SDS011;59678;52.476;6.046;2022-09-27T12:30:20;1.20;;;0.40;;
43819;SDS011;59678;52.476;6.046;2022-09-27T12:35:19;2.92;;;0.70;;
43819;SDS011;59678;52.476;6.046;2022-09-27T12:42:44;2.47;;;0.90;;
43819;SDS011;59678;52.476;6.046;2022-09-27T12:45:27;1.42;;;0.40;;
43819;SDS011;59678;52.476;6.046;2022-09-27T12:48:03;3.40;;;0.57;;
43819;SDS011;59678;52.476;6.046;2022-09-27T12:50:36;2.88;;;0.40;;
43819;SDS011;59678;52.476;6.046;2022-09-27T12:53:13;0.82;;;0.40;;
43819;SDS011;59678;52.476;6.046;2022-09-27T13:00:43;3.17;;;1.35;;
43819;SDS011;59678;52.476;6.046;2022-09-27T13:06:03;2.38;;;0.47;;
43819;SDS011;59678;52.476;6.046;2022-09-27T13:13:34;2.53;;;0.60;;
43819;SDS011;59678;52.476;6.046;2022-09-27T13:16:00;1.33;;;0.50;;
43819;SDS011;59678;52.476;6.046;2022-09-27T13:21:06;0.47;;;0.30;;
43819;SDS011;59678;52.476;6.046;2022-09-27T13:34:35;0.30;;;0.30;;
43819;SDS011;59678;52.476;6.046;2022-09-27T13:36:54;1.27;;;0.60;;
43819;SDS011;59678;52.476;6.046;2022-09-27T13:39:20;3.10;;;0.65;;
43819;SDS011;59678;52.476;6.046;2022-09-27T13:42:12;2.58;;;0.68;;
43819;SDS011;59678;52.476;6.046;2022-09-27T13:44:45;2.30;;;0.60;;
43819;SDS011;59678;52.476;6.046;2022-09-27T13:49:40;2.85;;;1.23;;
43819;SDS011;59678;52.476;6.046;2022-09-27T13:54:54;1.52;;;0.60;;
43819;SDS011;59678;52.476;6.046;2022-09-27T14:03:02;1.48;;;0.68;;
43819;SDS011;59678;52.476;6.046;2022-09-27T14:05:34;2.20;;;0.60;;
43819;SDS011;59678;52.476;6.046;2022-09-27T14:08:03;3.08;;;0.50;;
43819;SDS011;59678;52.476;6.046;2022-09-27T14:10:29;1.08;;;0.35;;
43819;SDS011;59678;52.476;6.046;2022-09-27T14:12:56;0.50;;;0.40;;
43819;SDS011;59678;52.476;6.046;2022-09-27T14:15:26;2.13;;;0.70;;
43819;SDS011;59678;52.476;6.046;2022-09-27T14:17:52;3.45;;;0.75;;
43819;SDS011;59678;52.476;6.046;2022-09-27T14:20:28;2.25;;;0.60;;
43819;SDS011;59678;52.476;6.046;2022-09-27T14:22:55;2.33;;;1.17;;
43819;SDS011;59678;52.476;6.046;2022-09-27T14:25:25;0.60;;;0.40;;
43819;SDS011;59678;52.476;6.046;2022-09-27T14:27:51;1.48;;;0.60;;
43819;SDS011;59678;52.476;6.046;2022-09-27T14:30:29;2.40;;;0.90;;
43819;SDS011;59678;52.476;6.046;2022-09-27T14:36:30;1.73;;;0.50;;
43819;SDS011;59678;52.476;6.046;2022-09-27T14:39:19;6.40;;;1.30;;
43819;SDS011;59678;52.476;6.046;2022-09-27T14:41:48;1.85;;;0.40;;
43819;SDS011;59678;52.476;6.046;2022-09-27T14:44:15;4.25;;;0.98;;
43819;SDS011;59678;52.476;6.046;2022-09-27T14:46:41;3.55;;;1.35;;
43819;SDS011;59678;52.476;6.046;2022-09-27T14:49:22;4.85;;;0.85;;
43819;SDS011;59678;52.476;6.046;2022-09-27T14:51:52;1.70;;;0.68;;
43819;SDS011;59678;52.476;6.046;2022-09-27T14:54:23;1.00;;;0.50;;
43819;SDS011;59678;52.476;6.046;2022-09-27T14:56:50;2.63;;;0.85;;
43819;SDS011;59678;52.476;6.046;2022-09-27T14:59:19;2.70;;;1.00;;
43819;SDS011;59678;52.476;6.046;2022-09-27T15:01:51;1.17;;;0.70;;
43819;SDS011;59678;52.476;6.046;2022-09-27T15:04:17;1.75;;;0.57;;
43819;SDS011;59678;52.476;6.046;2022-09-27T15:06:45;0.30;;;0.20;;
43819;SDS011;59678;52.476;6.046;2022-09-27T15:09:12;1.15;;;0.65;;
43819;SDS011;59678;52.476;6.046;2022-09-27T15:11:39;1.08;;;0.40;;
43819;SDS011;59678;52.476;6.046;2022-09-27T15:14:06;1.45;;;0.60;;
43819;SDS011;59678;52.476;6.046;2022-09-27T15:16:35;0.73;;;0.60;;
43819;SDS011;59678;52.476;6.046;2022-09-27T15:19:04;3.20;;;1.38;;
43819;SDS011;59678;52.476;6.046;2022-09-27T15:21:33;2.60;;;0.60;;
43819;SDS011;59678;52.476;6.046;2022-09-27T15:23:59;1.10;;;0.50;;
43819;SDS011;59678;52.476;6.046;2022-09-27T15:26:32;1.05;;;0.38;;
43819;SDS011;59678;52.476;6.046;2022-09-27T15:28:59;1.40;;;0.65;;
43819;SDS011;59678;52.476;6.046;2022-09-27T15:31:31;1.48;;;0.60;;
43819;SDS011;59678;52.476;6.046;2022-09-27T15:33:58;2.45;;;0.80;;
43819;SDS011;59678;52.476;6.046;2022-09-27T15:39:06;1.80;;;0.85;;
43819;SDS011;59678;52.476;6.046;2022-09-27T15:41:58;1.67;;;0.63;;
43819;SDS011;59678;52.476;6.046;2022-09-27T15:44:33;1.58;;;0.57;;
43819;SDS011;59678;52.476;6.046;2022-09-27T15:47:00;2.92;;;0.90;;
43819;SDS011;59678;52.476;6.046;2022-09-27T15:49:26;2.83;;;0.60;;
43819;SDS011;59678;52.476;6.046;2022-09-27T15:51:58;1.77;;;0.73;;
43819;SDS011;59678;52.476;6.046;2022-09-27T15:54:25;1.77;;;0.55;;
43819;SDS011;59678;52.476;6.046;2022-09-27T15:56:52;0.95;;;0.50;;
43819;SDS011;59678;52.476;6.046;2022-09-27T16:01:45;1.35;;;0.45;;
43819;SDS011;59678;52.476;6.046;2022-09-27T16:04:12;2.03;;;0.95;;
43819;SDS011;59678;52.476;6.046;2022-09-27T16:06:37;0.47;;;0.32;;
43819;SDS011;59678;52.476;6.046;2022-09-27T16:09:03;3.08;;;0.60;;
43819;SDS011;59678;52.476;6.046;2022-09-27T16:11:28;1.17;;;0.40;;
43819;SDS011;59678;52.476;6.046;2022-09-27T16:13:53;0.77;;;0.30;;
43819;SDS011;59678;52.476;6.046;2022-09-27T16:16:19;4.32;;;0.60;;
43819;SDS011;59678;52.476;6.046;2022-09-27T16:18:47;1.13;;;0.40;;
43819;SDS011;59678;52.476;6.046;2022-09-27T16:21:13;2.17;;;0.52;;
43819;SDS011;59678;52.476;6.046;2022-09-27T16:23:38;1.85;;;0.57;;
43819;SDS011;59678;52.476;6.046;2022-09-27T16:26:04;2.33;;;0.40;;
43819;SDS011;59678;52.476;6.046;2022-09-27T16:28:30;3.30;;;0.60;;
43819;SDS011;59678;52.476;6.046;2022-09-27T16:30:59;0.82;;;0.50;;
43819;SDS011;59678;52.476;6.046;2022-09-27T16:33:25;2.47;;;0.50;;
43819;SDS011;59678;52.476;6.046;2022-09-27T16:35:50;2.35;;;0.65;;
43819;SDS011;59678;52.476;6.046;2022-09-27T16:38:16;1.73;;;0.45;;
43819;SDS011;59678;52.476;6.046;2022-09-27T16:40:42;2.08;;;0.55;;
43819;SDS011;59678;52.476;6.046;2022-09-27T16:43:07;0.50;;;0.38;;
43819;SDS011;59678;52.476;6.046;2022-09-27T16:45:33;1.52;;;0.45;;
43819;SDS011;59678;52.476;6.046;2022-09-27T16:47:59;5.25;;;0.52;;
43819;SDS011;59678;52.476;6.046;2022-09-27T16:50:25;1.90;;;0.80;;
43819;SDS011;59678;52.476;6.046;2022-09-27T16:53:10;1.75;;;0.65;;
43819;SDS011;59678;52.476;6.046;2022-09-27T16:55:36;2.83;;;0.80;;
43819;SDS011;59678;52.476;6.046;2022-09-27T16:58:01;2.28;;;0.90;;
43819;SDS011;59678;52.476;6.046;2022-09-27T17:00:29;3.17;;;0.85;;
43819;SDS011;59678;52.476;6.046;2022-09-27T17:02:58;2.90;;;1.00;;
43819;SDS011;59678;52.476;6.046;2022-09-27T17:05:23;2.65;;;0.40;;
43819;SDS011;59678;52.476;6.046;2022-09-27T17:07:49;1.40;;;0.40;;
43819;SDS011;59678;52.476;6.046;2022-09-27T17:10:15;1.30;;;0.40;;
43819;SDS011;59678;52.476;6.046;2022-09-27T17:12:42;4.43;;;0.70;;
43819;SDS011;59678;52.476;6.046;2022-09-27T17:15:07;0.77;;;0.30;;
43819;SDS011;59678;52.476;6.046;2022-09-27T17:17:33;1.45;;;0.60;;
43819;SDS011;59678;52.476;6.046;2022-09-27T17:19:58;2.67;;;0.50;;
43819;SDS011;59678;52.476;6.046;2022-09-27T17:22:24;2.65;;;0.47;;
43819;SDS011;59678;52.476;6.046;2022-09-27T17:24:49;2.45;;;0.63;;
43819;SDS011;59678;52.476;6.046;2022-09-27T17:27:15;1.45;;;0.98;;
43819;SDS011;59678;52.476;6.046;2022-09-27T17:29:41;1.50;;;0.80;;
43819;SDS011;59678;52.476;6.046;2022-09-27T17:32:06;2.95;;;1.23;;
43819;SDS011;59678;52.476;6.046;2022-09-27T17:34:33;2.00;;;0.95;;
43819;SDS011;59678;52.476;6.046;2022-09-27T17:36:58;5.05;;;1.38;;
43819;SDS011;59678;52.476;6.046;2022-09-27T17:39:24;4.25;;;1.50;;
43819;SDS011;59678;52.476;6.046;2022-09-27T17:41:50;4.53;;;1.08;;
43819;SDS011;59678;52.476;6.046;2022-09-27T17:44:16;4.43;;;1.20;;